Aeroporto :
LOGIN :

Iscrizione | Disclaimer

   EN    FR    IT 

 










Sommario :    VFR   VFR Marginale   IFR   IFR Intensivo   IFR Molto Intensivo
Visibilità : 
Base nubi : 
>= 8 km
>= 3000ft
5 / 8 km
1000 / 3000 ft
1500m / 5 km
500 / 1000 ft
800 / 1500m
200 / 500 ft
< 800m
< 200 ft
Simboli :   Temporali  Nebbia  Neve Forte  Precipitazioni Forti  Vento > 20 kt
SIGMETs :   Varie  Temporali  Ghiacco  Turbolenza  Onda orograficha  Ceneri Vulcaniche






- Altitudine del aeroporto : 203 ft
- Codice IATA : ELU


DAUO - Guemar - El Oued

ULTIMO METAR :
  • 210900Z 20007KT 160V230 CAVOK 39/07 Q1010

METARs OBSOLETI :
  • 210800Z 18007KT 160V220 CAVOK 37/08 Q1010
  • 210700Z 19006KT 150V220 CAVOK 33/08 Q1010
  • 210600Z 18006KT 150V210 CAVOK 32/07 Q1009
  • 210500Z 19004KT CAVOK 31/07 Q1009

TAF TAF DAUO
Valido dal 21 a 09 ore il 21 a 18 ore UTC


210800Z 2109/2118 18008KT CAVOK



MetMap, La meteo Aeronautica in un colpo d'occhio ! - Copyright ORBIFLY Dicembre 2007 - Disclaimer

ORBIFLY MET'MAP TEAM :

Programmazione e sviluppo : Alexandra Zaïnal
Concezione : Baudouin d'Aumeries
Supporto tecnico e logistico : Manuel Goepfert
Aiuto : Marc-Olivier Méhu
Aiuto per la traduzione : Arnaldo La Scala




FONTI E CREDITI :

   NOAA